sensor_id;sensor_type;location;lat;lon;timestamp;P1;durP1;ratioP1;P2;durP2;ratioP2
22754;SDS011;11544;42.020;23.094;2023-12-04T00:01:46;5.13;;;3.88;;
22754;SDS011;11544;42.020;23.094;2023-12-04T00:04:14;7.35;;;2.92;;
22754;SDS011;11544;42.020;23.094;2023-12-04T00:06:41;6.60;;;4.03;;
22754;SDS011;11544;42.020;23.094;2023-12-04T00:09:09;7.35;;;3.92;;
22754;SDS011;11544;42.020;23.094;2023-12-04T00:11:35;6.30;;;3.47;;
22754;SDS011;11544;42.020;23.094;2023-12-04T00:14:03;5.93;;;3.65;;
22754;SDS011;11544;42.020;23.094;2023-12-04T00:16:32;8.90;;;4.75;;
22754;SDS011;11544;42.020;23.094;2023-12-04T00:19:00;10.43;;;4.57;;
22754;SDS011;11544;42.020;23.094;2023-12-04T00:21:27;6.63;;;3.78;;
22754;SDS011;11544;42.020;23.094;2023-12-04T00:23:54;6.85;;;3.72;;
22754;SDS011;11544;42.020;23.094;2023-12-04T00:26:21;8.15;;;4.13;;
22754;SDS011;11544;42.020;23.094;2023-12-04T00:28:48;10.18;;;4.50;;
22754;SDS011;11544;42.020;23.094;2023-12-04T00:31:15;5.53;;;4.20;;
22754;SDS011;11544;42.020;23.094;2023-12-04T00:33:42;7.10;;;4.05;;
22754;SDS011;11544;42.020;23.094;2023-12-04T00:36:09;5.88;;;3.63;;
22754;SDS011;11544;42.020;23.094;2023-12-04T00:38:37;5.80;;;4.07;;
22754;SDS011;11544;42.020;23.094;2023-12-04T00:41:03;6.00;;;4.40;;
22754;SDS011;11544;42.020;23.094;2023-12-04T00:43:31;10.38;;;4.25;;
22754;SDS011;11544;42.020;23.094;2023-12-04T00:45:58;4.47;;;3.45;;
22754;SDS011;11544;42.020;23.094;2023-12-04T00:48:25;6.15;;;4.00;;
22754;SDS011;11544;42.020;23.094;2023-12-04T00:50:52;6.28;;;4.05;;
22754;SDS011;11544;42.020;23.094;2023-12-04T00:53:18;8.98;;;3.83;;
22754;SDS011;11544;42.020;23.094;2023-12-04T00:55:48;8.40;;;4.13;;
22754;SDS011;11544;42.020;23.094;2023-12-04T00:58:15;6.40;;;4.18;;
22754;SDS011;11544;42.020;23.094;2023-12-04T01:00:44;5.35;;;3.72;;
22754;SDS011;11544;42.020;23.094;2023-12-04T01:03:15;5.10;;;3.25;;
22754;SDS011;11544;42.020;23.094;2023-12-04T01:05:42;7.47;;;3.80;;
22754;SDS011;11544;42.020;23.094;2023-12-04T01:08:09;7.07;;;3.80;;
22754;SDS011;11544;42.020;23.094;2023-12-04T01:10:36;5.68;;;3.38;;
22754;SDS011;11544;42.020;23.094;2023-12-04T01:13:03;7.43;;;4.13;;
22754;SDS011;11544;42.020;23.094;2023-12-04T01:15:30;9.07;;;3.78;;
22754;SDS011;11544;42.020;23.094;2023-12-04T01:17:57;5.32;;;3.15;;
22754;SDS011;11544;42.020;23.094;2023-12-04T01:20:27;7.53;;;4.05;;
22754;SDS011;11544;42.020;23.094;2023-12-04T01:22:54;3.88;;;2.90;;
22754;SDS011;11544;42.020;23.094;2023-12-04T01:25:20;4.25;;;3.42;;
22754;SDS011;11544;42.020;23.094;2023-12-04T01:27:48;5.18;;;3.20;;
22754;SDS011;11544;42.020;23.094;2023-12-04T01:30:15;6.50;;;3.75;;
22754;SDS011;11544;42.020;23.094;2023-12-04T01:32:41;5.30;;;3.65;;
22754;SDS011;11544;42.020;23.094;2023-12-04T01:35:09;7.47;;;4.10;;
22754;SDS011;11544;42.020;23.094;2023-12-04T01:37:36;6.35;;;3.38;;
22754;SDS011;11544;42.020;23.094;2023-12-04T01:40:05;5.72;;;3.55;;
22754;SDS011;11544;42.020;23.094;2023-12-04T01:42:36;5.72;;;3.85;;
22754;SDS011;11544;42.020;23.094;2023-12-04T01:45:03;6.10;;;3.30;;
22754;SDS011;11544;42.020;23.094;2023-12-04T01:47:31;5.45;;;3.33;;
22754;SDS011;11544;42.020;23.094;2023-12-04T01:49:59;6.63;;;3.40;;
22754;SDS011;11544;42.020;23.094;2023-12-04T01:52:26;4.90;;;3.35;;
22754;SDS011;11544;42.020;23.094;2023-12-04T01:54:53;6.70;;;4.25;;
22754;SDS011;11544;42.020;23.094;2023-12-04T01:57:21;9.27;;;4.05;;
22754;SDS011;11544;42.020;23.094;2023-12-04T01:59:48;6.03;;;3.40;;
22754;SDS011;11544;42.020;23.094;2023-12-04T02:02:15;7.25;;;4.50;;
22754;SDS011;11544;42.020;23.094;2023-12-04T02:04:42;7.20;;;3.75;;
22754;SDS011;11544;42.020;23.094;2023-12-04T02:07:09;7.13;;;3.53;;
22754;SDS011;11544;42.020;23.094;2023-12-04T02:09:37;10.02;;;3.75;;
22754;SDS011;11544;42.020;23.094;2023-12-04T02:12:04;5.70;;;4.03;;
22754;SDS011;11544;42.020;23.094;2023-12-04T02:14:31;9.13;;;4.57;;
22754;SDS011;11544;42.020;23.094;2023-12-04T02:16:58;10.43;;;4.10;;
22754;SDS011;11544;42.020;23.094;2023-12-04T02:19:28;8.32;;;4.45;;
22754;SDS011;11544;42.020;23.094;2023-12-04T02:21:56;11.30;;;5.10;;
22754;SDS011;11544;42.020;23.094;2023-12-04T02:24:23;10.95;;;5.22;;
22754;SDS011;11544;42.020;23.094;2023-12-04T02:27:04;11.18;;;4.70;;
22754;SDS011;11544;42.020;23.094;2023-12-04T02:29:39;13.35;;;5.45;;
22754;SDS011;11544;42.020;23.094;2023-12-04T02:32:11;18.35;;;6.90;;
22754;SDS011;11544;42.020;23.094;2023-12-04T02:34:43;14.32;;;6.70;;
22754;SDS011;11544;42.020;23.094;2023-12-04T02:37:12;18.55;;;7.68;;
22754;SDS011;11544;42.020;23.094;2023-12-04T02:39:40;15.88;;;6.40;;
22754;SDS011;11544;42.020;23.094;2023-12-04T02:42:08;15.13;;;5.05;;
22754;SDS011;11544;42.020;23.094;2023-12-04T02:44:36;10.65;;;4.70;;
22754;SDS011;11544;42.020;23.094;2023-12-04T02:47:03;18.15;;;5.05;;
22754;SDS011;11544;42.020;23.094;2023-12-04T02:49:29;15.23;;;5.13;;
22754;SDS011;11544;42.020;23.094;2023-12-04T02:51:56;8.10;;;4.10;;
22754;SDS011;11544;42.020;23.094;2023-12-04T02:54:23;8.13;;;3.75;;
22754;SDS011;11544;42.020;23.094;2023-12-04T02:56:50;10.20;;;5.15;;
22754;SDS011;11544;42.020;23.094;2023-12-04T02:59:17;9.80;;;5.50;;
22754;SDS011;11544;42.020;23.094;2023-12-04T03:01:44;12.68;;;4.97;;
22754;SDS011;11544;42.020;23.094;2023-12-04T03:04:11;21.58;;;6.57;;
22754;SDS011;11544;42.020;23.094;2023-12-04T03:06:38;21.67;;;7.03;;
22754;SDS011;11544;42.020;23.094;2023-12-04T03:09:05;13.13;;;4.75;;
22754;SDS011;11544;42.020;23.094;2023-12-04T03:11:32;20.35;;;6.15;;
22754;SDS011;11544;42.020;23.094;2023-12-04T03:13:59;12.52;;;5.43;;
22754;SDS011;11544;42.020;23.094;2023-12-04T03:16:27;13.52;;;5.13;;
22754;SDS011;11544;42.020;23.094;2023-12-04T03:18:54;14.30;;;5.53;;
22754;SDS011;11544;42.020;23.094;2023-12-04T03:21:21;13.13;;;5.07;;
22754;SDS011;11544;42.020;23.094;2023-12-04T03:23:48;16.17;;;5.18;;
22754;SDS011;11544;42.020;23.094;2023-12-04T03:26:15;9.77;;;4.43;;
22754;SDS011;11544;42.020;23.094;2023-12-04T03:28:42;12.02;;;5.50;;
22754;SDS011;11544;42.020;23.094;2023-12-04T03:31:09;19.42;;;5.90;;
22754;SDS011;11544;42.020;23.094;2023-12-04T03:33:36;13.23;;;5.18;;
22754;SDS011;11544;42.020;23.094;2023-12-04T03:36:03;10.52;;;4.80;;
22754;SDS011;11544;42.020;23.094;2023-12-04T03:38:31;10.05;;;5.00;;
22754;SDS011;11544;42.020;23.094;2023-12-04T03:40:58;8.52;;;4.10;;
22754;SDS011;11544;42.020;23.094;2023-12-04T03:43:25;15.77;;;4.78;;
22754;SDS011;11544;42.020;23.094;2023-12-04T03:45:52;8.23;;;4.38;;
22754;SDS011;11544;42.020;23.094;2023-12-04T03:48:18;9.93;;;4.35;;
22754;SDS011;11544;42.020;23.094;2023-12-04T03:50:45;14.80;;;5.22;;
22754;SDS011;11544;42.020;23.094;2023-12-04T03:53:12;11.07;;;4.53;;
22754;SDS011;11544;42.020;23.094;2023-12-04T03:55:39;9.98;;;5.15;;
22754;SDS011;11544;42.020;23.094;2023-12-04T03:58:06;13.05;;;5.15;;
22754;SDS011;11544;42.020;23.094;2023-12-04T04:00:33;10.63;;;4.85;;
22754;SDS011;11544;42.020;23.094;2023-12-04T04:03:02;11.65;;;5.10;;
22754;SDS011;11544;42.020;23.094;2023-12-04T04:05:29;10.85;;;4.80;;
22754;SDS011;11544;42.020;23.094;2023-12-04T04:07:56;9.68;;;5.28;;
22754;SDS011;11544;42.020;23.094;2023-12-04T04:10:23;15.40;;;5.10;;
22754;SDS011;11544;42.020;23.094;2023-12-04T04:12:50;12.80;;;5.15;;
22754;SDS011;11544;42.020;23.094;2023-12-04T04:15:17;8.15;;;4.93;;
22754;SDS011;11544;42.020;23.094;2023-12-04T04:17:44;15.82;;;4.72;;
22754;SDS011;11544;42.020;23.094;2023-12-04T04:20:11;17.63;;;5.82;;
22754;SDS011;11544;42.020;23.094;2023-12-04T04:22:39;6.53;;;4.55;;
22754;SDS011;11544;42.020;23.094;2023-12-04T04:25:07;10.93;;;5.57;;
22754;SDS011;11544;42.020;23.094;2023-12-04T04:27:34;9.48;;;4.90;;
22754;SDS011;11544;42.020;23.094;2023-12-04T04:30:02;10.50;;;4.90;;
22754;SDS011;11544;42.020;23.094;2023-12-04T04:32:29;14.40;;;4.20;;
22754;SDS011;11544;42.020;23.094;2023-12-04T04:34:56;10.48;;;4.65;;
22754;SDS011;11544;42.020;23.094;2023-12-04T04:37:23;9.80;;;4.35;;
22754;SDS011;11544;42.020;23.094;2023-12-04T04:39:50;11.10;;;5.05;;
22754;SDS011;11544;42.020;23.094;2023-12-04T04:42:17;10.55;;;5.13;;
22754;SDS011;11544;42.020;23.094;2023-12-04T04:44:44;14.32;;;5.22;;
22754;SDS011;11544;42.020;23.094;2023-12-04T04:47:14;7.50;;;4.22;;
22754;SDS011;11544;42.020;23.094;2023-12-04T04:49:41;8.50;;;4.85;;
22754;SDS011;11544;42.020;23.094;2023-12-04T04:52:08;7.20;;;4.03;;
22754;SDS011;11544;42.020;23.094;2023-12-04T04:54:35;7.93;;;4.07;;
22754;SDS011;11544;42.020;23.094;2023-12-04T04:57:02;10.00;;;4.90;;
22754;SDS011;11544;42.020;23.094;2023-12-04T04:59:30;8.60;;;4.85;;
22754;SDS011;11544;42.020;23.094;2023-12-04T05:01:58;8.25;;;5.05;;
22754;SDS011;11544;42.020;23.094;2023-12-04T05:04:25;10.52;;;4.90;;
22754;SDS011;11544;42.020;23.094;2023-12-04T05:06:53;8.32;;;4.43;;
22754;SDS011;11544;42.020;23.094;2023-12-04T05:09:20;7.78;;;3.97;;
22754;SDS011;11544;42.020;23.094;2023-12-04T05:11:47;9.73;;;4.30;;
22754;SDS011;11544;42.020;23.094;2023-12-04T05:14:13;10.25;;;4.32;;
22754;SDS011;11544;42.020;23.094;2023-12-04T05:16:40;9.43;;;4.50;;
22754;SDS011;11544;42.020;23.094;2023-12-04T05:19:07;11.15;;;4.45;;
22754;SDS011;11544;42.020;23.094;2023-12-04T05:21:35;10.40;;;5.85;;
22754;SDS011;11544;42.020;23.094;2023-12-04T05:24:02;12.32;;;5.47;;
22754;SDS011;11544;42.020;23.094;2023-12-04T05:26:29;11.15;;;6.20;;
22754;SDS011;11544;42.020;23.094;2023-12-04T05:28:56;9.75;;;4.45;;
22754;SDS011;11544;42.020;23.094;2023-12-04T05:31:23;12.75;;;5.00;;
22754;SDS011;11544;42.020;23.094;2023-12-04T05:33:49;10.73;;;4.55;;
22754;SDS011;11544;42.020;23.094;2023-12-04T05:36:16;9.73;;;5.15;;
22754;SDS011;11544;42.020;23.094;2023-12-04T05:38:43;11.95;;;5.32;;
22754;SDS011;11544;42.020;23.094;2023-12-04T05:41:10;7.32;;;4.38;;
22754;SDS011;11544;42.020;23.094;2023-12-04T05:43:37;12.85;;;4.80;;
22754;SDS011;11544;42.020;23.094;2023-12-04T05:46:04;11.13;;;5.85;;
22754;SDS011;11544;42.020;23.094;2023-12-04T05:48:31;11.20;;;5.20;;
22754;SDS011;11544;42.020;23.094;2023-12-04T05:50:58;14.27;;;6.10;;
22754;SDS011;11544;42.020;23.094;2023-12-04T05:53:25;10.80;;;6.00;;
22754;SDS011;11544;42.020;23.094;2023-12-04T05:55:52;10.60;;;5.25;;
22754;SDS011;11544;42.020;23.094;2023-12-04T05:58:19;7.93;;;5.07;;
22754;SDS011;11544;42.020;23.094;2023-12-04T06:00:46;12.00;;;4.70;;
22754;SDS011;11544;42.020;23.094;2023-12-04T06:03:13;11.27;;;4.78;;
22754;SDS011;11544;42.020;23.094;2023-12-04T06:05:39;12.45;;;5.13;;
22754;SDS011;11544;42.020;23.094;2023-12-04T06:08:07;12.75;;;5.32;;
22754;SDS011;11544;42.020;23.094;2023-12-04T06:10:34;15.55;;;6.28;;
22754;SDS011;11544;42.020;23.094;2023-12-04T06:13:01;16.73;;;6.32;;
22754;SDS011;11544;42.020;23.094;2023-12-04T06:15:28;15.13;;;6.07;;
22754;SDS011;11544;42.020;23.094;2023-12-04T06:17:55;10.30;;;5.40;;
22754;SDS011;11544;42.020;23.094;2023-12-04T06:20:22;11.45;;;6.60;;
22754;SDS011;11544;42.020;23.094;2023-12-04T06:22:49;12.70;;;5.78;;
22754;SDS011;11544;42.020;23.094;2023-12-04T06:25:17;16.52;;;6.20;;
22754;SDS011;11544;42.020;23.094;2023-12-04T06:27:44;13.55;;;6.72;;
22754;SDS011;11544;42.020;23.094;2023-12-04T06:30:12;10.68;;;5.97;;
22754;SDS011;11544;42.020;23.094;2023-12-04T06:32:39;11.55;;;5.82;;
22754;SDS011;11544;42.020;23.094;2023-12-04T06:35:07;15.27;;;6.93;;
22754;SDS011;11544;42.020;23.094;2023-12-04T06:37:34;12.23;;;6.07;;
22754;SDS011;11544;42.020;23.094;2023-12-04T06:40:03;14.93;;;6.53;;
22754;SDS011;11544;42.020;23.094;2023-12-04T06:42:30;11.90;;;5.60;;
22754;SDS011;11544;42.020;23.094;2023-12-04T06:44:57;10.50;;;6.13;;
22754;SDS011;11544;42.020;23.094;2023-12-04T06:47:25;13.05;;;6.13;;
22754;SDS011;11544;42.020;23.094;2023-12-04T06:49:52;11.10;;;6.28;;
22754;SDS011;11544;42.020;23.094;2023-12-04T06:52:19;11.32;;;6.22;;
22754;SDS011;11544;42.020;23.094;2023-12-04T06:54:46;18.42;;;6.78;;
22754;SDS011;11544;42.020;23.094;2023-12-04T06:57:13;8.82;;;5.63;;
22754;SDS011;11544;42.020;23.094;2023-12-04T06:59:44;9.20;;;5.70;;
22754;SDS011;11544;42.020;23.094;2023-12-04T07:02:11;10.80;;;5.60;;
22754;SDS011;11544;42.020;23.094;2023-12-04T07:04:38;9.18;;;5.32;;
22754;SDS011;11544;42.020;23.094;2023-12-04T07:07:06;14.20;;;5.07;;
22754;SDS011;11544;42.020;23.094;2023-12-04T07:09:33;9.07;;;5.22;;
22754;SDS011;11544;42.020;23.094;2023-12-04T07:12:00;9.00;;;4.35;;
22754;SDS011;11544;42.020;23.094;2023-12-04T07:14:29;15.43;;;5.40;;
22754;SDS011;11544;42.020;23.094;2023-12-04T07:16:56;10.40;;;6.13;;
22754;SDS011;11544;42.020;23.094;2023-12-04T07:19:23;13.20;;;5.13;;
22754;SDS011;11544;42.020;23.094;2023-12-04T07:21:50;12.07;;;5.10;;
22754;SDS011;11544;42.020;23.094;2023-12-04T07:24:17;9.75;;;4.68;;
22754;SDS011;11544;42.020;23.094;2023-12-04T07:26:44;7.47;;;4.50;;
22754;SDS011;11544;42.020;23.094;2023-12-04T07:29:11;9.15;;;5.03;;
22754;SDS011;11544;42.020;23.094;2023-12-04T07:31:38;9.15;;;4.85;;
22754;SDS011;11544;42.020;23.094;2023-12-04T07:34:07;11.07;;;5.68;;
22754;SDS011;11544;42.020;23.094;2023-12-04T07:36:35;10.13;;;4.93;;
22754;SDS011;11544;42.020;23.094;2023-12-04T07:39:02;8.88;;;5.47;;
22754;SDS011;11544;42.020;23.094;2023-12-04T07:41:30;8.90;;;5.10;;
22754;SDS011;11544;42.020;23.094;2023-12-04T07:43:57;9.50;;;5.40;;
22754;SDS011;11544;42.020;23.094;2023-12-04T07:46:24;10.93;;;4.13;;
22754;SDS011;11544;42.020;23.094;2023-12-04T07:48:52;8.77;;;4.65;;
22754;SDS011;11544;42.020;23.094;2023-12-04T07:51:21;8.77;;;5.07;;
22754;SDS011;11544;42.020;23.094;2023-12-04T07:53:48;12.02;;;5.57;;
22754;SDS011;11544;42.020;23.094;2023-12-04T07:56:15;9.23;;;4.43;;
22754;SDS011;11544;42.020;23.094;2023-12-04T07:58:42;8.38;;;4.03;;
22754;SDS011;11544;42.020;23.094;2023-12-04T08:01:09;7.40;;;4.38;;
22754;SDS011;11544;42.020;23.094;2023-12-04T08:03:36;5.55;;;3.58;;
22754;SDS011;11544;42.020;23.094;2023-12-04T08:06:04;5.57;;;3.35;;
22754;SDS011;11544;42.020;23.094;2023-12-04T08:08:32;4.75;;;3.80;;
22754;SDS011;11544;42.020;23.094;2023-12-04T08:10:59;7.20;;;3.92;;
22754;SDS011;11544;42.020;23.094;2023-12-04T08:13:26;7.05;;;4.30;;
22754;SDS011;11544;42.020;23.094;2023-12-04T08:15:53;6.45;;;3.15;;
22754;SDS011;11544;42.020;23.094;2023-12-04T08:18:20;6.25;;;3.15;;
22754;SDS011;11544;42.020;23.094;2023-12-04T08:20:47;8.05;;;4.22;;
22754;SDS011;11544;42.020;23.094;2023-12-04T08:23:14;12.70;;;4.70;;
22754;SDS011;11544;42.020;23.094;2023-12-04T08:25:41;9.13;;;4.20;;
22754;SDS011;11544;42.020;23.094;2023-12-04T08:28:08;7.28;;;4.18;;
22754;SDS011;11544;42.020;23.094;2023-12-04T08:30:35;7.60;;;4.30;;
22754;SDS011;11544;42.020;23.094;2023-12-04T08:33:03;11.82;;;5.20;;
22754;SDS011;11544;42.020;23.094;2023-12-04T08:35:30;5.03;;;3.50;;
22754;SDS011;11544;42.020;23.094;2023-12-04T08:37:57;8.48;;;4.18;;
22754;SDS011;11544;42.020;23.094;2023-12-04T08:40:24;7.25;;;3.55;;
22754;SDS011;11544;42.020;23.094;2023-12-04T08:42:51;8.63;;;4.53;;
22754;SDS011;11544;42.020;23.094;2023-12-04T08:45:18;8.05;;;3.63;;
22754;SDS011;11544;42.020;23.094;2023-12-04T08:47:45;8.65;;;4.18;;
22754;SDS011;11544;42.020;23.094;2023-12-04T08:50:12;7.07;;;4.68;;
22754;SDS011;11544;42.020;23.094;2023-12-04T08:52:39;7.07;;;4.15;;
22754;SDS011;11544;42.020;23.094;2023-12-04T08:55:09;8.02;;;4.95;;
22754;SDS011;11544;42.020;23.094;2023-12-04T08:57:36;15.55;;;4.45;;
22754;SDS011;11544;42.020;23.094;2023-12-04T09:00:04;8.38;;;4.25;;
22754;SDS011;11544;42.020;23.094;2023-12-04T09:02:31;7.53;;;4.38;;
22754;SDS011;11544;42.020;23.094;2023-12-04T09:04:58;7.13;;;4.55;;
22754;SDS011;11544;42.020;23.094;2023-12-04T09:07:26;10.93;;;4.55;;
22754;SDS011;11544;42.020;23.094;2023-12-04T09:10:13;10.70;;;4.22;;
22754;SDS011;11544;42.020;23.094;2023-12-04T09:13:00;9.90;;;4.63;;
22754;SDS011;11544;42.020;23.094;2023-12-04T09:15:27;6.20;;;3.85;;
22754;SDS011;11544;42.020;23.094;2023-12-04T09:17:54;6.47;;;3.92;;
22754;SDS011;11544;42.020;23.094;2023-12-04T09:20:21;6.00;;;3.10;;
22754;SDS011;11544;42.020;23.094;2023-12-04T09:22:49;5.95;;;3.47;;
22754;SDS011;11544;42.020;23.094;2023-12-04T09:25:22;5.88;;;3.47;;
22754;SDS011;11544;42.020;23.094;2023-12-04T09:27:49;6.72;;;3.67;;
22754;SDS011;11544;42.020;23.094;2023-12-04T09:30:16;6.28;;;3.20;;
22754;SDS011;11544;42.020;23.094;2023-12-04T09:32:44;5.40;;;3.35;;
22754;SDS011;11544;42.020;23.094;2023-12-04T09:35:11;5.47;;;3.42;;
22754;SDS011;11544;42.020;23.094;2023-12-04T09:37:38;8.27;;;3.30;;
22754;SDS011;11544;42.020;23.094;2023-12-04T09:40:06;8.43;;;3.80;;
22754;SDS011;11544;42.020;23.094;2023-12-04T09:42:34;5.45;;;3.33;;
22754;SDS011;11544;42.020;23.094;2023-12-04T09:45:02;7.57;;;2.60;;
22754;SDS011;11544;42.020;23.094;2023-12-04T09:47:30;6.28;;;3.22;;
22754;SDS011;11544;42.020;23.094;2023-12-04T09:50:00;5.05;;;3.10;;
22754;SDS011;11544;42.020;23.094;2023-12-04T09:52:28;8.30;;;4.22;;
22754;SDS011;11544;42.020;23.094;2023-12-04T09:54:55;7.75;;;3.78;;
22754;SDS011;11544;42.020;23.094;2023-12-04T09:57:23;7.72;;;3.85;;
22754;SDS011;11544;42.020;23.094;2023-12-04T09:59:51;7.45;;;3.47;;
22754;SDS011;11544;42.020;23.094;2023-12-04T10:02:19;6.57;;;3.53;;
22754;SDS011;11544;42.020;23.094;2023-12-04T10:04:48;7.53;;;3.38;;
22754;SDS011;11544;42.020;23.094;2023-12-04T10:10:03;8.75;;;3.72;;
22754;SDS011;11544;42.020;23.094;2023-12-04T10:12:32;5.53;;;2.72;;
22754;SDS011;11544;42.020;23.094;2023-12-04T10:15:07;6.32;;;2.95;;
22754;SDS011;11544;42.020;23.094;2023-12-04T10:17:36;10.30;;;5.15;;
22754;SDS011;11544;42.020;23.094;2023-12-04T10:20:04;5.55;;;3.22;;
22754;SDS011;11544;42.020;23.094;2023-12-04T10:22:51;5.53;;;3.20;;
22754;SDS011;11544;42.020;23.094;2023-12-04T10:25:22;6.13;;;2.92;;
22754;SDS011;11544;42.020;23.094;2023-12-04T10:28:11;5.63;;;2.70;;
22754;SDS011;11544;42.020;23.094;2023-12-04T10:30:39;5.40;;;3.00;;
22754;SDS011;11544;42.020;23.094;2023-12-04T10:33:06;5.88;;;3.38;;
22754;SDS011;11544;42.020;23.094;2023-12-04T10:35:36;6.25;;;2.92;;
22754;SDS011;11544;42.020;23.094;2023-12-04T10:38:04;6.50;;;3.03;;
22754;SDS011;11544;42.020;23.094;2023-12-04T10:40:35;4.38;;;2.72;;
22754;SDS011;11544;42.020;23.094;2023-12-04T10:43:10;6.05;;;3.08;;
22754;SDS011;11544;42.020;23.094;2023-12-04T10:45:47;6.55;;;3.80;;
22754;SDS011;11544;42.020;23.094;2023-12-04T10:48:16;6.25;;;3.35;;
22754;SDS011;11544;42.020;23.094;2023-12-04T10:50:45;6.80;;;3.67;;
22754;SDS011;11544;42.020;23.094;2023-12-04T10:53:14;7.63;;;3.17;;
22754;SDS011;11544;42.020;23.094;2023-12-04T10:55:42;6.80;;;3.30;;
22754;SDS011;11544;42.020;23.094;2023-12-04T10:58:14;4.70;;;2.97;;
22754;SDS011;11544;42.020;23.094;2023-12-04T11:03:13;6.15;;;3.45;;
22754;SDS011;11544;42.020;23.094;2023-12-04T11:05:46;8.82;;;3.15;;
22754;SDS011;11544;42.020;23.094;2023-12-04T11:08:18;7.38;;;3.95;;
22754;SDS011;11544;42.020;23.094;2023-12-04T11:10:56;7.07;;;4.28;;
22754;SDS011;11544;42.020;23.094;2023-12-04T11:13:32;6.30;;;3.10;;
22754;SDS011;11544;42.020;23.094;2023-12-04T11:18:48;3.90;;;2.53;;
22754;SDS011;11544;42.020;23.094;2023-12-04T11:21:21;8.63;;;3.20;;
22754;SDS011;11544;42.020;23.094;2023-12-04T11:23:51;5.95;;;2.95;;
22754;SDS011;11544;42.020;23.094;2023-12-04T11:26:18;3.60;;;3.05;;
22754;SDS011;11544;42.020;23.094;2023-12-04T11:28:46;9.05;;;3.88;;
22754;SDS011;11544;42.020;23.094;2023-12-04T11:31:14;4.78;;;3.15;;
22754;SDS011;11544;42.020;23.094;2023-12-04T11:33:42;5.78;;;3.58;;
22754;SDS011;11544;42.020;23.094;2023-12-04T11:36:11;7.80;;;3.38;;
22754;SDS011;11544;42.020;23.094;2023-12-04T11:38:46;5.63;;;2.72;;
22754;SDS011;11544;42.020;23.094;2023-12-04T11:43:50;3.80;;;2.38;;
22754;SDS011;11544;42.020;23.094;2023-12-04T11:46:19;5.22;;;2.63;;
22754;SDS011;11544;42.020;23.094;2023-12-04T11:48:49;7.00;;;2.67;;
22754;SDS011;11544;42.020;23.094;2023-12-04T11:54:09;3.78;;;2.30;;
22754;SDS011;11544;42.020;23.094;2023-12-04T11:56:43;3.10;;;2.00;;
22754;SDS011;11544;42.020;23.094;2023-12-04T11:59:26;7.47;;;2.63;;
22754;SDS011;11544;42.020;23.094;2023-12-04T12:01:54;4.85;;;2.30;;
22754;SDS011;11544;42.020;23.094;2023-12-04T12:04:25;5.07;;;2.10;;
22754;SDS011;11544;42.020;23.094;2023-12-04T12:06:57;4.63;;;2.42;;
22754;SDS011;11544;42.020;23.094;2023-12-04T12:09:24;4.15;;;2.35;;
22754;SDS011;11544;42.020;23.094;2023-12-04T12:11:52;3.63;;;2.22;;
22754;SDS011;11544;42.020;23.094;2023-12-04T12:14:20;4.00;;;2.15;;
22754;SDS011;11544;42.020;23.094;2023-12-04T12:16:48;5.03;;;2.78;;
22754;SDS011;11544;42.020;23.094;2023-12-04T12:19:15;6.88;;;4.28;;
22754;SDS011;11544;42.020;23.094;2023-12-04T12:21:44;5.22;;;3.20;;
22754;SDS011;11544;42.020;23.094;2023-12-04T12:24:11;7.80;;;3.05;;
22754;SDS011;11544;42.020;23.094;2023-12-04T12:26:39;3.28;;;2.13;;
22754;SDS011;11544;42.020;23.094;2023-12-04T12:29:06;5.90;;;3.13;;
22754;SDS011;11544;42.020;23.094;2023-12-04T12:31:35;4.15;;;2.13;;
22754;SDS011;11544;42.020;23.094;2023-12-04T12:34:02;3.28;;;2.40;;
22754;SDS011;11544;42.020;23.094;2023-12-04T12:36:29;4.13;;;2.40;;
22754;SDS011;11544;42.020;23.094;2023-12-04T12:38:59;4.47;;;2.50;;
22754;SDS011;11544;42.020;23.094;2023-12-04T12:41:30;4.55;;;2.60;;
22754;SDS011;11544;42.020;23.094;2023-12-04T12:43:57;4.18;;;2.55;;
22754;SDS011;11544;42.020;23.094;2023-12-04T12:46:26;10.52;;;3.05;;
22754;SDS011;11544;42.020;23.094;2023-12-04T12:48:53;6.47;;;2.67;;
22754;SDS011;11544;42.020;23.094;2023-12-04T12:51:22;4.18;;;2.33;;
22754;SDS011;11544;42.020;23.094;2023-12-04T12:53:50;5.32;;;3.10;;
22754;SDS011;11544;42.020;23.094;2023-12-04T12:56:18;4.43;;;2.63;;
22754;SDS011;11544;42.020;23.094;2023-12-04T12:58:46;4.90;;;2.15;;
22754;SDS011;11544;42.020;23.094;2023-12-04T13:01:13;4.55;;;2.38;;
22754;SDS011;11544;42.020;23.094;2023-12-04T13:03:40;5.20;;;2.00;;
22754;SDS011;11544;42.020;23.094;2023-12-04T13:06:07;4.05;;;2.47;;
22754;SDS011;11544;42.020;23.094;2023-12-04T13:08:35;4.50;;;2.45;;
22754;SDS011;11544;42.020;23.094;2023-12-04T13:11:02;8.07;;;3.03;;
22754;SDS011;11544;42.020;23.094;2023-12-04T13:13:30;6.88;;;3.88;;
22754;SDS011;11544;42.020;23.094;2023-12-04T13:15:58;7.00;;;2.83;;
22754;SDS011;11544;42.020;23.094;2023-12-04T13:18:25;4.63;;;2.70;;
22754;SDS011;11544;42.020;23.094;2023-12-04T13:20:52;5.80;;;2.90;;
22754;SDS011;11544;42.020;23.094;2023-12-04T13:23:19;6.57;;;2.65;;
22754;SDS011;11544;42.020;23.094;2023-12-04T13:25:46;2.80;;;2.15;;
22754;SDS011;11544;42.020;23.094;2023-12-04T13:28:13;8.45;;;3.30;;
22754;SDS011;11544;42.020;23.094;2023-12-04T13:30:53;7.70;;;4.15;;
22754;SDS011;11544;42.020;23.094;2023-12-04T13:33:22;7.82;;;3.63;;
22754;SDS011;11544;42.020;23.094;2023-12-04T13:35:49;8.00;;;3.63;;
22754;SDS011;11544;42.020;23.094;2023-12-04T13:38:16;5.55;;;3.55;;
22754;SDS011;11544;42.020;23.094;2023-12-04T13:40:51;9.15;;;3.83;;
22754;SDS011;11544;42.020;23.094;2023-12-04T13:43:45;8.48;;;3.65;;
22754;SDS011;11544;42.020;23.094;2023-12-04T13:46:18;4.80;;;3.28;;
22754;SDS011;11544;42.020;23.094;2023-12-04T13:48:46;6.55;;;3.60;;
22754;SDS011;11544;42.020;23.094;2023-12-04T13:51:13;6.13;;;3.83;;
22754;SDS011;11544;42.020;23.094;2023-12-04T13:53:40;6.53;;;3.28;;
22754;SDS011;11544;42.020;23.094;2023-12-04T13:56:11;7.95;;;3.85;;
22754;SDS011;11544;42.020;23.094;2023-12-04T13:58:47;7.22;;;3.60;;
22754;SDS011;11544;42.020;23.094;2023-12-04T14:01:20;7.05;;;3.50;;
22754;SDS011;11544;42.020;23.094;2023-12-04T14:03:50;5.70;;;3.45;;
22754;SDS011;11544;42.020;23.094;2023-12-04T14:06:19;9.95;;;3.72;;
22754;SDS011;11544;42.020;23.094;2023-12-04T14:08:46;6.53;;;3.45;;
22754;SDS011;11544;42.020;23.094;2023-12-04T14:11:14;6.00;;;3.30;;
22754;SDS011;11544;42.020;23.094;2023-12-04T14:13:41;9.85;;;3.70;;
22754;SDS011;11544;42.020;23.094;2023-12-04T14:16:08;10.55;;;4.25;;
22754;SDS011;11544;42.020;23.094;2023-12-04T14:18:36;10.02;;;5.20;;
22754;SDS011;11544;42.020;23.094;2023-12-04T14:21:03;9.98;;;4.00;;
22754;SDS011;11544;42.020;23.094;2023-12-04T14:23:31;6.38;;;3.53;;
22754;SDS011;11544;42.020;23.094;2023-12-04T14:25:58;5.40;;;3.08;;
22754;SDS011;11544;42.020;23.094;2023-12-04T14:28:25;6.82;;;3.40;;
22754;SDS011;11544;42.020;23.094;2023-12-04T14:31:00;9.82;;;4.38;;
22754;SDS011;11544;42.020;23.094;2023-12-04T14:33:28;8.93;;;4.38;;
22754;SDS011;11544;42.020;23.094;2023-12-04T14:35:55;6.07;;;3.88;;
22754;SDS011;11544;42.020;23.094;2023-12-04T14:38:22;8.60;;;4.22;;
22754;SDS011;11544;42.020;23.094;2023-12-04T14:40:49;9.73;;;5.10;;
22754;SDS011;11544;42.020;23.094;2023-12-04T14:43:16;6.90;;;3.30;;
22754;SDS011;11544;42.020;23.094;2023-12-04T14:45:43;13.60;;;7.80;;
22754;SDS011;11544;42.020;23.094;2023-12-04T14:48:11;21.77;;;13.82;;
22754;SDS011;11544;42.020;23.094;2023-12-04T14:50:39;14.45;;;9.05;;